createdAt,value
2023-02-27T00:04:08.000Z,5.40
2023-02-27T00:09:46.000Z,5.40
2023-02-27T00:15:25.000Z,5.30
2023-02-27T00:21:03.000Z,6.10
2023-02-27T00:26:42.000Z,5.40
2023-02-27T00:32:20.000Z,5.60
2023-02-27T00:37:59.000Z,5.20
2023-02-27T00:43:38.000Z,5.60
2023-02-27T00:49:16.000Z,5.30
2023-02-27T00:54:55.000Z,5.40
2023-02-27T01:00:33.000Z,5.50
2023-02-27T01:06:12.000Z,5.30
2023-02-27T01:11:50.000Z,5.20
2023-02-27T01:17:29.000Z,4.70
2023-02-27T01:23:08.000Z,4.80
2023-02-27T01:28:46.000Z,4.80
2023-02-27T01:34:25.000Z,4.40
2023-02-27T01:40:03.000Z,4.20
2023-02-27T01:45:42.000Z,4.60
2023-02-27T01:51:20.000Z,4.50
2023-02-27T01:56:59.000Z,4.60
2023-02-27T02:02:38.000Z,4.70
2023-02-27T02:08:16.000Z,5.00
2023-02-27T02:13:55.000Z,5.60
2023-02-27T02:19:33.000Z,5.30
2023-02-27T02:25:12.000Z,5.40
2023-02-27T02:30:50.000Z,4.60
2023-02-27T02:36:29.000Z,4.50
2023-02-27T02:42:08.000Z,4.20
2023-02-27T02:47:46.000Z,3.90
2023-02-27T02:53:25.000Z,3.90
2023-02-27T02:59:03.000Z,3.70
2023-02-27T03:04:42.000Z,3.60
2023-02-27T03:10:20.000Z,3.80
2023-02-27T03:15:59.000Z,3.70
2023-02-27T03:21:37.000Z,3.30
2023-02-27T03:27:16.000Z,3.20
2023-02-27T03:32:55.000Z,3.30
2023-02-27T03:38:33.000Z,3.30
2023-02-27T03:44:12.000Z,3.20
2023-02-27T03:49:50.000Z,3.00
2023-02-27T03:55:29.000Z,2.70
2023-02-27T04:01:07.000Z,3.00
2023-02-27T04:06:46.000Z,2.90
2023-02-27T04:12:25.000Z,3.10
2023-02-27T04:18:03.000Z,3.10
2023-02-27T04:23:42.000Z,2.90
2023-02-27T04:29:20.000Z,2.90
2023-02-27T04:34:59.000Z,3.10
2023-02-27T04:40:37.000Z,2.90
2023-02-27T04:46:16.000Z,2.90
2023-02-27T04:51:55.000Z,2.80
2023-02-27T04:57:33.000Z,2.70
2023-02-27T05:03:12.000Z,2.60
2023-02-27T05:08:50.000Z,2.60
2023-02-27T05:14:29.000Z,2.70
2023-02-27T05:20:07.000Z,2.80
2023-02-27T05:25:46.000Z,2.50
2023-02-27T05:31:25.000Z,2.30
2023-02-27T05:37:03.000Z,2.20
2023-02-27T05:42:42.000Z,2.10
2023-02-27T05:48:20.000Z,2.20
2023-02-27T05:53:59.000Z,2.50
2023-02-27T05:59:37.000Z,2.30
2023-02-27T06:05:16.000Z,2.20
